createdAt,value
2017-09-04T00:02:07.778Z,3.43
2017-09-04T00:04:36.841Z,3.70
2017-09-04T00:07:05.123Z,3.40
2017-09-04T00:09:33.536Z,3.60
2017-09-04T00:12:01.800Z,2.97
2017-09-04T00:14:30.057Z,3.60
2017-09-04T00:16:58.433Z,2.93
2017-09-04T00:19:26.751Z,2.93
2017-09-04T00:21:55.051Z,3.40
2017-09-04T00:24:23.300Z,3.03
2017-09-04T00:26:51.574Z,3.00
2017-09-04T00:29:19.862Z,3.17
2017-09-04T00:31:48.239Z,3.53
2017-09-04T00:34:16.612Z,3.27
2017-09-04T00:36:44.901Z,3.70
2017-09-04T00:39:13.954Z,3.57
2017-09-04T00:41:42.221Z,3.23
2017-09-04T00:44:10.513Z,3.10
2017-09-04T00:46:38.780Z,3.10
2017-09-04T00:49:07.108Z,3.47
2017-09-04T00:51:35.352Z,3.23
2017-09-04T00:54:03.660Z,3.50
2017-09-04T00:56:32.022Z,3.43
2017-09-04T00:59:00.339Z,3.17
2017-09-04T01:01:28.638Z,2.70
2017-09-04T01:03:56.906Z,2.70
2017-09-04T01:06:26.160Z,2.80
2017-09-04T01:08:54.427Z,3.30
2017-09-04T01:11:22.721Z,3.40
2017-09-04T01:13:51.000Z,3.73
2017-09-04T01:16:19.309Z,3.77
2017-09-04T01:18:47.573Z,3.40
2017-09-04T01:21:15.852Z,3.27
2017-09-04T01:23:44.138Z,3.40
2017-09-04T01:26:12.800Z,3.83
2017-09-04T01:28:41.121Z,3.50
2017-09-04T01:31:09.504Z,3.20
2017-09-04T01:33:37.777Z,3.33
2017-09-04T01:36:06.048Z,3.47
2017-09-04T01:38:34.372Z,2.83
2017-09-04T01:41:02.633Z,3.43
2017-09-04T01:43:30.957Z,4.00
2017-09-04T01:45:59.257Z,3.13
2017-09-04T01:48:27.572Z,2.93
2017-09-04T01:50:55.880Z,3.63
2017-09-04T01:53:24.157Z,3.37
2017-09-04T01:55:52.484Z,3.20
2017-09-04T01:58:20.740Z,3.20
2017-09-04T02:00:49.158Z,3.80
2017-09-04T02:03:17.425Z,3.90
2017-09-04T02:05:45.702Z,3.67
2017-09-04T02:08:14.084Z,3.13
2017-09-04T02:10:42.345Z,3.30
2017-09-04T02:13:10.751Z,3.87
2017-09-04T02:15:39.019Z,3.50
2017-09-04T02:18:07.335Z,3.50
2017-09-04T02:20:35.612Z,4.10
2017-09-04T02:23:03.918Z,3.30
2017-09-04T02:25:32.208Z,3.30
2017-09-04T02:28:00.472Z,3.57
2017-09-04T02:30:28.752Z,3.17
2017-09-04T02:32:57.053Z,4.00
2017-09-04T02:35:25.324Z,3.40
2017-09-04T02:37:53.711Z,3.50
2017-09-04T02:40:22.014Z,2.97
2017-09-04T02:42:50.279Z,3.47
2017-09-04T02:45:18.653Z,3.37
2017-09-04T02:47:47.124Z,4.07
2017-09-04T02:50:15.401Z,3.23
2017-09-04T02:52:43.666Z,3.63
2017-09-04T02:55:11.963Z,4.10
2017-09-04T02:57:40.324Z,3.50
2017-09-04T03:00:08.613Z,4.10
2017-09-04T03:02:36.889Z,3.83
2017-09-04T03:05:05.163Z,3.60
2017-09-04T03:07:33.544Z,4.17
2017-09-04T03:10:01.827Z,4.57
2017-09-04T03:12:30.219Z,4.77
2017-09-04T03:14:58.476Z,4.17
2017-09-04T03:17:26.758Z,4.80
2017-09-04T03:19:55.042Z,5.67
2017-09-04T03:22:23.300Z,4.70
2017-09-04T03:24:51.688Z,4.50
2017-09-04T03:27:19.949Z,5.07
2017-09-04T03:29:48.242Z,5.27
2017-09-04T03:32:16.508Z,5.37
2017-09-04T03:34:44.914Z,5.13
2017-09-04T03:37:13.268Z,4.87
2017-09-04T03:39:41.534Z,5.37
2017-09-04T03:42:09.832Z,4.80
2017-09-04T03:44:38.088Z,5.10
2017-09-04T03:47:06.377Z,4.70
2017-09-04T03:49:35.418Z,5.20
2017-09-04T03:52:03.708Z,4.43
2017-09-04T03:54:31.969Z,5.23
2017-09-04T03:57:00.240Z,4.70
2017-09-04T03:59:28.495Z,5.50
2017-09-04T04:01:56.784Z,4.20
2017-09-04T04:04:25.052Z,4.60
2017-09-04T04:06:53.385Z,4.83
2017-09-04T04:09:21.768Z,5.20
2017-09-04T04:11:50.019Z,5.00
2017-09-04T04:14:18.310Z,5.10
2017-09-04T04:16:46.573Z,4.83
2017-09-04T04:19:14.884Z,5.57
2017-09-04T04:21:43.138Z,3.53
2017-09-04T04:24:11.541Z,5.10
2017-09-04T04:26:39.813Z,6.13
2017-09-04T04:29:08.203Z,5.40
2017-09-04T04:31:36.482Z,5.47
2017-09-04T04:34:04.747Z,5.63
2017-09-04T04:36:33.117Z,4.77
2017-09-04T04:39:01.378Z,4.77
2017-09-04T04:41:29.655Z,5.00
2017-09-04T04:43:57.914Z,5.57
2017-09-04T04:46:26.220Z,5.00
2017-09-04T04:48:54.487Z,5.10
2017-09-04T04:51:22.740Z,5.23
2017-09-04T04:53:51.016Z,5.50
2017-09-04T04:56:19.292Z,4.43
2017-09-04T04:58:47.604Z,5.53
2017-09-04T05:01:15.894Z,4.20
2017-09-04T05:03:44.170Z,5.73
2017-09-04T05:06:12.443Z,4.87
2017-09-04T05:08:40.826Z,5.00
2017-09-04T05:11:09.103Z,5.73
2017-09-04T05:13:37.385Z,4.77
2017-09-04T05:16:05.823Z,3.97
2017-09-04T05:18:34.654Z,4.10
2017-09-04T05:21:02.942Z,5.07
2017-09-04T05:23:32.760Z,4.47
2017-09-04T05:26:01.047Z,4.57
2017-09-04T05:28:29.344Z,5.50
2017-09-04T05:30:57.634Z,5.43
2017-09-04T05:33:26.011Z,5.83
2017-09-04T05:35:54.284Z,6.17
2017-09-04T05:38:22.661Z,5.70
2017-09-04T05:40:50.941Z,6.73
2017-09-04T05:43:20.001Z,8.83
2017-09-04T05:45:48.261Z,8.03
2017-09-04T05:48:16.540Z,8.67
2017-09-04T05:50:44.803Z,8.13
2017-09-04T05:53:13.113Z,8.37
2017-09-04T05:55:41.488Z,8.13
2017-09-04T05:58:09.736Z,7.80
2017-09-04T06:00:38.030Z,6.00
2017-09-04T06:03:06.353Z,5.27
2017-09-04T06:05:36.053Z,5.67
2017-09-04T06:08:05.681Z,5.33
2017-09-04T06:10:34.020Z,4.13
2017-09-04T06:13:02.298Z,5.13
2017-09-04T06:15:30.590Z,4.80
2017-09-04T06:17:58.976Z,4.90
2017-09-04T06:20:27.235Z,5.10
2017-09-04T06:22:55.514Z,4.67
2017-09-04T06:25:23.782Z,5.23
2017-09-04T06:27:52.064Z,4.97
2017-09-04T06:30:20.337Z,4.07
2017-09-04T06:32:48.608Z,3.03
2017-09-04T06:35:16.893Z,3.37
2017-09-04T06:37:45.194Z,3.73
2017-09-04T06:40:13.476Z,2.97
2017-09-04T06:42:41.771Z,3.20
2017-09-04T06:45:10.130Z,3.90
2017-09-04T06:47:38.401Z,3.00
2017-09-04T06:50:06.705Z,3.17
2017-09-04T06:52:35.764Z,2.73
2017-09-04T06:55:04.163Z,3.20
2017-09-04T06:57:32.427Z,2.57
2017-09-04T07:00:00.692Z,3.40
2017-09-04T07:02:28.991Z,3.10
2017-09-04T07:04:57.369Z,2.90
2017-09-04T07:07:25.645Z,2.33
2017-09-04T07:09:53.935Z,2.50
2017-09-04T07:12:22.218Z,2.60
2017-09-04T07:14:50.473Z,2.00
2017-09-04T07:17:18.761Z,1.60
2017-09-04T07:19:47.027Z,2.40
2017-09-04T07:22:15.410Z,2.07
2017-09-04T07:24:43.687Z,2.50
2017-09-04T07:27:12.096Z,2.40
2017-09-04T07:29:40.449Z,2.03
2017-09-04T07:32:08.835Z,2.10
2017-09-04T07:34:37.111Z,2.03
2017-09-04T07:37:05.389Z,1.40
2017-09-04T07:39:33.754Z,1.50
2017-09-04T07:42:02.026Z,2.17
2017-09-04T07:44:30.422Z,2.23
2017-09-04T07:46:58.688Z,1.70
2017-09-04T07:49:26.989Z,1.87
2017-09-04T07:51:55.241Z,1.50
2017-09-04T07:54:23.549Z,1.60
2017-09-04T07:56:52.586Z,1.60
2017-09-04T07:59:20.859Z,1.77
2017-09-04T08:01:49.139Z,1.57
2017-09-04T08:04:17.409Z,1.60
2017-09-04T08:06:45.708Z,1.67
2017-09-04T08:09:14.118Z,1.50
2017-09-04T08:11:43.156Z,1.90
2017-09-04T08:14:11.424Z,1.57
2017-09-04T08:16:39.750Z,1.17
2017-09-04T08:19:08.030Z,1.60
2017-09-04T08:21:36.410Z,1.00
2017-09-04T08:24:04.785Z,1.27
2017-09-04T08:26:33.033Z,1.70
2017-09-04T08:29:01.324Z,1.53
2017-09-04T08:31:29.634Z,1.67
2017-09-04T08:33:57.928Z,1.40
2017-09-04T08:36:26.189Z,1.00
2017-09-04T08:38:54.465Z,1.40
2017-09-04T08:41:22.719Z,1.70
2017-09-04T08:43:51.107Z,1.60
2017-09-04T08:46:19.358Z,1.73
2017-09-04T08:48:47.632Z,0.97
2017-09-04T08:51:15.941Z,1.40
2017-09-04T08:53:44.201Z,1.40
2017-09-04T08:56:12.899Z,1.20
2017-09-04T08:58:41.148Z,1.17
2017-09-04T09:01:09.443Z,0.97
2017-09-04T09:03:37.704Z,1.17
2017-09-04T09:06:06.109Z,1.47
2017-09-04T09:08:34.490Z,1.10
2017-09-04T09:11:02.771Z,1.30
2017-09-04T09:13:31.145Z,1.10
2017-09-04T09:15:59.400Z,1.30
2017-09-04T09:18:27.701Z,1.43
2017-09-04T09:20:55.965Z,1.90
2017-09-04T09:23:24.250Z,1.70
2017-09-04T09:25:52.511Z,1.50
2017-09-04T09:28:20.828Z,0.87
2017-09-04T09:30:49.076Z,1.30
2017-09-04T09:33:17.337Z,1.20
2017-09-04T09:35:45.636Z,1.20
2017-09-04T09:38:13.925Z,1.33
2017-09-04T09:40:42.220Z,1.13
2017-09-04T09:43:10.575Z,1.30
2017-09-04T09:45:38.948Z,1.27
2017-09-04T09:48:07.248Z,1.30
2017-09-04T09:50:35.533Z,1.13
2017-09-04T09:53:04.580Z,1.50
2017-09-04T09:55:32.907Z,1.60
2017-09-04T09:58:01.198Z,1.00
2017-09-04T10:00:29.466Z,1.10
2017-09-04T10:02:58.535Z,1.07
2017-09-04T10:05:26.789Z,0.80
2017-09-04T10:07:55.092Z,1.17
2017-09-04T10:10:23.367Z,1.30
2017-09-04T10:12:51.637Z,1.17
2017-09-04T10:15:19.911Z,1.43
2017-09-04T10:17:48.209Z,1.30
2017-09-04T10:20:16.464Z,1.13
2017-09-04T10:22:44.739Z,1.17
2017-09-04T10:25:13.040Z,1.20
2017-09-04T10:27:41.293Z,1.00
2017-09-04T10:30:09.594Z,0.80
2017-09-04T10:32:37.843Z,0.80
2017-09-04T10:35:06.151Z,1.07
2017-09-04T10:37:34.430Z,0.90
2017-09-04T10:40:02.718Z,0.97
2017-09-04T10:42:30.974Z,1.10
2017-09-04T10:44:59.237Z,0.87
2017-09-04T10:47:27.548Z,1.03
2017-09-04T10:49:55.834Z,0.90
2017-09-04T10:52:24.125Z,0.87
2017-09-04T10:54:52.402Z,0.80
2017-09-04T10:57:20.715Z,1.10
2017-09-04T10:59:48.993Z,1.10
2017-09-04T11:02:17.267Z,1.07
2017-09-04T11:04:45.583Z,1.50
2017-09-04T11:07:14.663Z,1.20
2017-09-04T11:09:42.957Z,1.10
2017-09-04T11:12:11.234Z,1.17
2017-09-04T11:14:39.511Z,1.20
2017-09-04T11:17:07.764Z,0.80
2017-09-04T11:19:36.065Z,1.00
2017-09-04T11:22:04.324Z,1.20
2017-09-04T11:24:32.610Z,0.93
2017-09-04T11:27:00.867Z,1.30
2017-09-04T11:29:29.189Z,1.37
2017-09-04T11:31:57.443Z,1.30
2017-09-04T11:34:25.713Z,0.90
2017-09-04T11:36:53.999Z,1.10
2017-09-04T11:39:22.266Z,1.13
2017-09-04T11:41:50.559Z,1.07
2017-09-04T11:44:18.842Z,0.93
2017-09-04T11:46:47.150Z,1.10
2017-09-04T11:49:15.415Z,1.23
2017-09-04T11:51:43.705Z,1.00
2017-09-04T11:54:12.035Z,1.17
2017-09-04T11:56:40.341Z,1.10
2017-09-04T11:59:08.650Z,1.07
2017-09-04T12:01:36.911Z,0.93
2017-09-04T12:04:05.477Z,1.07
2017-09-04T12:06:34.012Z,1.03
2017-09-04T12:09:02.534Z,1.30
2017-09-04T12:11:30.957Z,0.97
2017-09-04T12:13:59.270Z,0.90
2017-09-04T12:16:27.534Z,1.57
2017-09-04T12:18:55.927Z,1.10
2017-09-04T12:21:24.221Z,1.20
2017-09-04T12:23:52.471Z,1.00
2017-09-04T12:26:20.835Z,1.80
2017-09-04T12:28:49.102Z,1.03
2017-09-04T12:31:17.430Z,1.10
2017-09-04T12:33:45.704Z,1.07
2017-09-04T12:36:13.985Z,1.00
2017-09-04T12:38:42.277Z,1.10
2017-09-04T12:41:10.785Z,1.40
2017-09-04T12:43:41.089Z,1.00
2017-09-04T12:46:12.435Z,1.00
2017-09-04T12:48:41.438Z,0.90
2017-09-04T12:51:10.128Z,0.90
2017-09-04T12:53:38.470Z,0.97
2017-09-04T12:56:07.654Z,1.03
2017-09-04T12:58:36.021Z,1.10
2017-09-04T13:01:04.359Z,0.97
2017-09-04T13:03:32.701Z,1.20
2017-09-04T13:06:01.007Z,1.40
2017-09-04T13:08:29.318Z,1.20
2017-09-04T13:11:03.306Z,1.67
2017-09-04T13:13:31.725Z,1.20
2017-09-04T13:19:21.510Z,1.60
2017-09-04T13:21:55.636Z,1.30
2017-09-04T13:24:30.290Z,1.20
2017-09-04T13:27:04.445Z,1.00
2017-09-04T13:29:38.389Z,0.90
2017-09-04T13:35:10.269Z,0.90
2017-09-04T13:37:44.147Z,1.10
2017-09-04T13:43:18.977Z,1.60
2017-09-04T13:45:53.004Z,1.13
2017-09-04T13:51:20.717Z,1.00
2017-09-04T13:53:52.975Z,1.20
2017-09-04T13:56:29.996Z,1.27
2017-09-04T13:59:09.112Z,1.77
2017-09-04T14:04:32.761Z,0.90
2017-09-04T14:07:06.697Z,1.40
2017-09-04T14:09:40.767Z,1.20
2017-09-04T14:15:11.386Z,1.23
2017-09-04T14:17:45.459Z,1.50
2017-09-04T14:20:13.784Z,2.10
2017-09-04T14:22:42.071Z,1.20
2017-09-04T14:25:10.353Z,1.43
2017-09-04T14:27:38.690Z,1.10
2017-09-04T14:30:06.955Z,1.27
2017-09-04T14:32:35.209Z,1.40
2017-09-04T14:35:03.525Z,1.17
2017-09-04T14:37:31.803Z,1.40
2017-09-04T14:40:00.071Z,1.53
2017-09-04T14:42:28.935Z,1.30
2017-09-04T14:44:59.028Z,1.20
2017-09-04T14:47:33.827Z,1.17
2017-09-04T14:50:02.117Z,1.30
2017-09-04T14:52:30.390Z,1.50
2017-09-04T14:54:58.671Z,1.40
2017-09-04T14:57:26.945Z,1.30
2017-09-04T14:59:55.208Z,1.67
2017-09-04T15:02:23.496Z,1.43
2017-09-04T15:04:51.768Z,1.40
2017-09-04T15:07:20.046Z,1.50
2017-09-04T15:09:48.306Z,1.50
2017-09-04T15:12:16.591Z,1.60
2017-09-04T15:14:45.620Z,1.70
2017-09-04T15:17:13.905Z,2.03
2017-09-04T15:19:42.211Z,2.03
2017-09-04T15:22:10.500Z,1.50
2017-09-04T15:24:38.778Z,1.63
2017-09-04T15:27:07.079Z,1.47
2017-09-04T15:29:35.361Z,2.00
2017-09-04T15:32:03.636Z,1.60
2017-09-04T15:34:31.922Z,1.30
2017-09-04T15:37:00.217Z,1.27
2017-09-04T15:39:28.498Z,2.03
2017-09-04T15:41:56.750Z,2.07
2017-09-04T15:44:25.042Z,1.70
2017-09-04T15:46:53.318Z,1.77
2017-09-04T15:49:21.599Z,1.80
2017-09-04T15:51:49.889Z,1.40
2017-09-04T15:54:18.149Z,1.57
2017-09-04T15:56:46.435Z,1.50
2017-09-04T15:59:14.683Z,1.70
2017-09-04T16:01:42.973Z,1.60
2017-09-04T16:04:11.289Z,1.80
2017-09-04T16:06:39.588Z,1.40
2017-09-04T16:09:07.835Z,1.60
2017-09-04T16:14:33.585Z,1.70
2017-09-04T16:20:02.299Z,1.70
2017-09-04T16:22:31.149Z,1.13
2017-09-04T16:24:59.439Z,1.20
2017-09-04T16:27:28.669Z,1.67
2017-09-04T16:30:02.551Z,1.30
2017-09-04T16:35:27.827Z,1.60
2017-09-04T16:38:13.758Z,1.60
2017-09-04T16:40:42.007Z,1.63
2017-09-04T16:43:23.125Z,1.60
2017-09-04T16:45:55.051Z,1.43
2017-09-04T16:48:27.216Z,1.70
2017-09-04T16:51:00.056Z,1.50
2017-09-04T16:53:28.933Z,1.90
2017-09-04T16:56:08.917Z,1.67
2017-09-04T16:58:37.215Z,1.77
2017-09-04T17:01:05.493Z,1.70
2017-09-04T17:03:33.775Z,1.73
2017-09-04T17:06:02.042Z,1.97
2017-09-04T17:08:30.323Z,1.33
2017-09-04T17:10:59.502Z,1.40
2017-09-04T17:13:27.760Z,1.87
2017-09-04T17:15:56.049Z,1.70
2017-09-04T17:21:32.357Z,1.60
2017-09-04T17:24:01.534Z,1.70
2017-09-04T17:26:29.795Z,1.80
2017-09-04T17:28:58.059Z,1.50
2017-09-04T17:31:26.346Z,2.10
2017-09-04T17:33:54.647Z,1.80
2017-09-04T17:36:23.001Z,1.83
2017-09-04T17:38:51.273Z,1.50
2017-09-04T17:41:19.581Z,1.80
2017-09-04T17:43:47.836Z,1.73
2017-09-04T17:46:16.096Z,1.40
2017-09-04T17:48:44.419Z,1.77
2017-09-04T17:51:12.775Z,1.97
2017-09-04T17:53:41.067Z,1.70
2017-09-04T17:56:09.346Z,1.43
2017-09-04T17:58:37.640Z,1.63
2017-09-04T18:01:05.913Z,1.47
2017-09-04T18:03:34.235Z,1.90
2017-09-04T18:06:02.513Z,1.57
2017-09-04T18:08:30.843Z,1.90
2017-09-04T18:10:59.198Z,1.50
2017-09-04T18:13:27.495Z,2.07
2017-09-04T18:15:55.773Z,2.30
2017-09-04T18:18:24.053Z,1.70
2017-09-04T18:20:52.338Z,2.60
2017-09-04T18:23:20.611Z,2.20
2017-09-04T18:28:23.485Z,1.87
2017-09-04T18:30:51.793Z,2.07
2017-09-04T18:33:20.126Z,1.60
2017-09-04T18:35:48.416Z,1.60
2017-09-04T18:38:16.704Z,2.10
2017-09-04T18:40:44.983Z,1.90
2017-09-04T18:43:13.262Z,2.17
2017-09-04T18:45:41.532Z,1.90
2017-09-04T18:48:09.827Z,1.90
2017-09-04T18:50:38.118Z,1.70
2017-09-04T18:53:06.399Z,2.30
2017-09-04T18:55:34.680Z,2.90
2017-09-04T18:58:02.995Z,1.90
2017-09-04T19:00:31.244Z,2.13
2017-09-04T19:02:59.527Z,2.13
2017-09-04T19:05:27.814Z,2.00
2017-09-04T19:07:56.077Z,1.80
2017-09-04T19:10:24.352Z,2.57
2017-09-04T19:12:52.617Z,2.13
2017-09-04T19:15:20.897Z,2.07
2017-09-04T19:17:49.154Z,1.93
2017-09-04T19:20:17.475Z,2.10
2017-09-04T19:22:45.786Z,2.10
2017-09-04T19:25:14.099Z,2.30
2017-09-04T19:27:42.392Z,1.90
2017-09-04T19:30:10.666Z,2.30
2017-09-04T19:32:38.959Z,1.90
2017-09-04T19:35:07.221Z,2.07
2017-09-04T19:37:35.535Z,2.20
2017-09-04T19:40:03.818Z,2.27
2017-09-04T19:42:32.100Z,2.40
2017-09-04T19:45:00.368Z,2.27
2017-09-04T19:47:28.671Z,2.00
2017-09-04T19:49:56.969Z,2.30
2017-09-04T19:52:25.292Z,2.10
2017-09-04T19:54:53.566Z,2.50
2017-09-04T19:57:21.861Z,2.27
2017-09-04T19:59:50.136Z,2.03
2017-09-04T20:02:18.403Z,2.33
2017-09-04T20:04:46.691Z,2.20
2017-09-04T20:07:14.953Z,2.10
2017-09-04T20:09:43.262Z,2.20
2017-09-04T20:12:11.519Z,2.20
2017-09-04T20:14:39.882Z,2.10
2017-09-04T20:17:08.273Z,2.70
2017-09-04T20:19:36.547Z,2.43
2017-09-04T20:22:04.850Z,2.80
2017-09-04T20:24:33.273Z,2.50
2017-09-04T20:27:01.818Z,2.70
2017-09-04T20:29:30.407Z,2.03
2017-09-04T20:32:01.458Z,2.70
2017-09-04T20:34:30.804Z,2.20
2017-09-04T20:36:59.558Z,2.03
2017-09-04T20:39:28.390Z,1.97
2017-09-04T20:41:59.709Z,2.43
2017-09-04T20:44:31.468Z,2.50
2017-09-04T20:47:07.324Z,2.27
2017-09-04T20:49:36.900Z,2.33
2017-09-04T20:52:05.602Z,2.70
2017-09-04T20:54:36.034Z,2.50
2017-09-04T20:57:05.351Z,2.07
2017-09-04T20:59:35.580Z,3.13
2017-09-04T21:02:05.185Z,2.57
2017-09-04T21:04:37.232Z,2.80
2017-09-04T21:07:05.877Z,3.13
2017-09-04T21:09:36.167Z,9.17
2017-09-04T21:12:05.555Z,5.57
2017-09-04T21:14:35.002Z,3.00
2017-09-04T21:17:04.461Z,2.77
2017-09-04T21:19:34.359Z,3.17
2017-09-04T21:22:03.132Z,2.90
2017-09-04T21:24:32.179Z,2.87
2017-09-04T21:27:00.941Z,3.23
2017-09-04T21:29:29.959Z,3.20
2017-09-04T21:31:58.291Z,2.73
2017-09-04T21:34:27.087Z,3.17
2017-09-04T21:36:55.488Z,2.80
2017-09-04T21:39:23.989Z,3.20
2017-09-04T21:41:52.683Z,2.50
2017-09-04T21:44:21.227Z,3.37
2017-09-04T21:46:49.577Z,3.47
2017-09-04T21:49:18.086Z,3.37
2017-09-04T21:51:46.517Z,2.97
2017-09-04T21:54:15.462Z,3.20
2017-09-04T21:56:43.901Z,3.13
2017-09-04T21:59:12.448Z,2.93
2017-09-04T22:01:40.754Z,3.30
2017-09-04T22:04:09.197Z,3.27
2017-09-04T22:06:38.630Z,3.60
2017-09-04T22:09:07.275Z,3.07
2017-09-04T22:11:35.695Z,3.20
2017-09-04T22:14:04.032Z,2.67
2017-09-04T22:16:32.313Z,3.10
2017-09-04T22:19:00.601Z,2.50
2017-09-04T22:21:28.847Z,3.10
2017-09-04T22:23:57.163Z,3.37
2017-09-04T22:26:25.407Z,2.73
2017-09-04T22:28:53.685Z,2.90
2017-09-04T22:31:21.992Z,2.97
2017-09-04T22:33:50.254Z,2.97
2017-09-04T22:36:18.540Z,2.70
2017-09-04T22:38:46.795Z,3.10
2017-09-04T22:41:15.085Z,3.30
2017-09-04T22:43:43.355Z,3.17
2017-09-04T22:46:11.651Z,2.73
2017-09-04T22:48:40.109Z,2.33
2017-09-04T22:51:08.372Z,2.70
2017-09-04T22:53:36.667Z,2.43
2017-09-04T22:56:04.943Z,2.63
2017-09-04T22:58:33.646Z,2.93
2017-09-04T23:01:01.922Z,3.40
2017-09-04T23:03:30.212Z,3.00
2017-09-04T23:05:58.478Z,3.23
2017-09-04T23:08:26.755Z,2.83
2017-09-04T23:10:55.017Z,3.10
2017-09-04T23:13:23.286Z,2.73
2017-09-04T23:15:51.570Z,2.90
2017-09-04T23:18:19.834Z,2.70
2017-09-04T23:20:48.106Z,2.67
2017-09-04T23:23:16.373Z,2.43
2017-09-04T23:25:44.661Z,2.60
2017-09-04T23:28:12.969Z,2.40
2017-09-04T23:30:41.286Z,3.00
2017-09-04T23:33:09.562Z,2.53
2017-09-04T23:35:37.861Z,2.30
2017-09-04T23:38:06.155Z,2.90
2017-09-04T23:40:34.429Z,2.80
2017-09-04T23:43:02.718Z,3.10
2017-09-04T23:45:30.975Z,3.20
2017-09-04T23:47:59.288Z,3.03
2017-09-04T23:50:27.567Z,3.50
2017-09-04T23:52:55.835Z,3.40
2017-09-04T23:55:24.105Z,3.10
2017-09-04T23:57:52.375Z,3.10
